Middle Village, NY (11379)

5:28 PM EDT on September 04, 2015 (GMT -0400)
Juniper Valley Park | | Change Station
CLOSE
Current Station
Personal Weather Station
Location: Queens, NY
Elevation: 108 ft
Nearby Weather Stations

Elev 108 ft 40.72 °N, 73.89 °W | Updated 13 minutes ago

Partly Cloudy
Partly Cloudy
80.2 °F
Feels Like 83 °F
N
-
Wind Variable Wind from North

Today
High -- | Low -- °F
--% Chance of Precip.
Yesterday
High -- | Low -- °F
Precip. -- in
6:25 AM 7:23 PM
Waning Gibbous, 56% visible
Pressure 30.10 in
Visibility 10.0 miles
Clouds Few 3000 ft
Scattered Clouds 6000 ft
Heat Index 83 °F
Dew Point 68 °F
Humidity 66%
Rainfall Not available.
Snow Depth Not available.
UV 2 out of 12
Pollen 9.00 out of 12
Air Quality Not available.
Flu Activity Not available.
METAR KLGA 042051Z 05011KT 10SM FEW030 SCT060 28/18 A3010 RMK AO2 SLP193 T02780178 55001
Pressure 30.10 in
Visibility 10.0 miles
Clouds Few 3000 ft
Scattered Clouds 6000 ft
Heat Index 83 °F
Dew Point 68 °F
Humidity 66%
Rainfall Not available.
Snow Depth Not available.
UV 2 out of 12
Pollen 9.00 out of 12
Air Quality Not available.
Flu Activity Not available.
METAR KLGA 042051Z 05011KT 10SM FEW030 SCT060 28/18 A3010 RMK AO2 SLP193 T02780178 55001

10-Day Weather Forecast

×

Almanac

Astronomy

Sep. 04, 2015 Rise Set
Actual Time
Civil Twilight
Nautical Twilight
Astronomical Twilight
Moon
Length of Visible Light
Length of Day
Tomorrow will be .
, % of the Moon is Illuminated

Today's Extremes

State Highs State Lows

Community

WunderPhotos

Upload Photos

1,852,297 photos uploaded!

WunderBlogs® & News

Nearby

Air Quality

  Air Quality AQ Index Pollutant
Not available.

Snow Depth

Station Depth Elevation

Earthquake Activity

City Distance Mag. Time & Date
Minimum magnitude displayed is 2.5.

Coastal Water Temperatures

Place Temperature

Stations

Nearby Weather Stations

Station Location Temp. Windchill Dew Point Humidity Wind Precip. Elev Updated Type